Time;durP1;ratioP1;P1;durP2;ratioP2;P2;SDS_P1;SDS_P2;PMS_P1;PMS_P2;Temp;Humidity;BMP_temperature;BMP_pressure;BME280_temperature;BME280_humidity;BME280_pressure;Samples;Min_cycle;Max_cycle;Signal;HPM_P1;HPM_P2
2022/04/28 00:00:53;;;;;;;5.17;4.67;;;;;;;11.72;52.56;98817.97;8154350;29;20240;-80
2022/04/28 00:04:57;;;;;;;5.63;4.60;;;;;;;11.55;52.46;98818.56;8154679;29;20240;-80
2022/04/28 00:09:00;;;;;;;7.27;4.80;;;;;;;11.46;52.88;98818.91;8154581;29;20243;-80
2022/04/28 00:13:04;;;;;;;6.33;4.70;;;;;;;11.45;52.73;98813.78;8154670;29;20236;-80
2022/04/28 00:17:07;;;;;;;5.20;4.70;;;;;;;11.32;52.97;98810.75;8154632;29;20244;-80
2022/04/28 00:21:11;;;;;;;5.33;4.83;;;;;;;11.38;52.94;98815.72;8154593;29;20248;-80
2022/04/28 00:25:14;;;;;;;6.30;5.20;;;;;;;11.23;52.91;98809.31;8154032;29;20244;-80
2022/04/28 00:29:18;;;;;;;6.23;5.50;;;;;;;11.26;52.77;98808.38;8155303;29;20565;-80
2022/04/28 00:33:22;;;;;;;6.00;5.50;;;;;;;11.18;53.40;98806.03;8160009;29;20539;-80
2022/04/28 00:37:25;;;;;;;8.83;5.40;;;;;;;11.27;53.13;98815.22;8159443;29;20246;-79
2022/04/28 00:41:28;;;;;;;6.53;5.43;;;;;;;11.15;52.93;98808.72;8159758;29;20240;-79
2022/04/28 00:45:32;;;;;;;8.83;5.37;;;;;;;11.21;53.06;98815.44;8159628;29;20244;-79
2022/04/28 00:53:57;;;;;;;6.27;5.60;;;;;;;11.08;53.20;98810.69;8159356;29;20237;-80
2022/04/28 00:58:00;;;;;;;7.43;6.07;;;;;;;11.08;53.33;98817.56;8159247;29;20247;-80
2022/04/28 01:02:04;;;;;;;6.60;5.90;;;;;;;11.02;53.40;98821.22;8159229;29;20236;-80
2022/04/28 01:06:08;;;;;;;6.90;5.90;;;;;;;11.05;52.96;98825.47;8159072;29;20263;-80
2022/04/28 01:10:11;;;;;;;6.20;5.60;;;;;;;10.90;53.32;98817.28;8158819;29;20251;-79
2022/04/28 01:14:14;;;;;;;5.93;5.33;;;;;;;10.83;53.16;98823.56;8158964;29;20352;-80
2022/04/28 01:18:19;;;;;;;5.80;5.20;;;;;;;10.84;52.83;98817.50;8158925;29;20283;-81
2022/04/28 01:22:23;;;;;;;7.40;5.40;;;;;;;10.80;53.11;98825.41;8158714;29;20266;-79
2022/04/28 01:26:27;;;;;;;6.20;5.60;;;;;;;10.72;53.30;98823.91;8158355;29;20239;-80
2022/04/28 01:30:30;;;;;;;7.30;5.73;;;;;;;10.67;53.56;98820.59;8158449;29;20247;-80
2022/04/28 01:34:33;;;;;;;6.80;5.93;;;;;;;10.70;53.02;98828.28;8158124;29;20243;-80
2022/04/28 01:38:38;;;;;;;8.93;5.40;;;;;;;10.65;53.78;98826.75;8158338;29;20240;-79
2022/04/28 01:42:41;;;;;;;5.57;5.03;;;;;;;10.64;53.38;98827.63;8157984;29;20573;-80
2022/04/28 01:46:44;;;;;;;5.33;4.83;;;;;;;10.61;53.13;98828.56;8157825;29;20240;-80
2022/04/28 01:55:06;;;;;;;5.67;5.13;;;;;;;10.58;53.23;98833.84;8156979;29;20236;-80
2022/04/28 01:59:09;;;;;;;5.63;5.13;;;;;;;10.53;53.68;98833.16;8157931;29;20244;-80
2022/04/28 02:03:12;;;;;;;7.17;5.27;;;;;;;10.53;53.72;98833.16;8157376;29;20244;-80
2022/04/28 02:07:16;;;;;;;5.83;5.13;;;;;;;10.53;53.87;98834.00;8157418;29;20440;-80
2022/04/28 02:11:20;;;;;;;6.67;5.47;;;;;;;10.53;53.44;98834.00;8157232;29;20236;-80
2022/04/28 02:15:23;;;;;;;9.00;4.90;;;;;;;10.64;52.96;98828.50;8156544;29;20244;-79
2022/04/28 02:19:26;;;;;;;5.63;5.10;;;;;;;10.44;52.70;98828.25;8156676;29;20264;-79
2022/04/28 02:23:29;;;;;;;5.87;5.10;;;;;;;10.29;53.15;98834.69;8157066;29;20244;-79
2022/04/28 02:27:33;;;;;;;5.40;4.83;;;;;;;10.27;52.64;98833.88;8156573;29;20306;-79
2022/04/28 02:31:36;;;;;;;5.80;5.20;;;;;;;10.20;52.83;98834.94;8156275;29;20236;-79
2022/04/28 02:35:39;;;;;;;6.73;5.80;;;;;;;10.18;53.10;98832.41;8156425;29;20606;-80
2022/04/28 02:39:42;;;;;;;7.80;5.63;;;;;;;10.14;53.39;98833.38;8156158;29;20252;-79
2022/04/28 02:43:47;;;;;;;6.27;5.67;;;;;;;10.18;53.54;98825.50;8156058;29;20235;-80
2022/04/28 02:47:49;;;;;;;8.20;5.57;;;;;;;10.11;53.41;98826.56;8156086;29;20243;-79
2022/04/28 02:51:52;;;;;;;6.40;5.80;;;;;;;10.12;53.25;98835.16;8155594;29;20542;-79
2022/04/28 02:55:55;;;;;;;7.47;6.67;;;;;;;10.04;53.43;98837.13;8155709;29;20236;-79
2022/04/28 03:00:01;;;;;;;6.87;6.20;;;;;;;9.95;53.49;98831.31;8155617;29;20236;-79
2022/04/28 03:04:04;;;;;;;6.33;5.50;;;;;;;10.07;52.83;98835.31;8155720;29;20240;-79
2022/04/28 03:12:27;;;;;;;5.87;5.37;;;;;;;10.10;52.93;98834.38;8124204;29;20236;-79
2022/04/28 03:16:32;;;;;;;5.60;5.10;;;;;;;10.02;52.56;98841.50;8124519;29;20440;-79
2022/04/28 03:20:35;;;;;;;6.03;5.43;;;;;;;9.89;52.71;98851.34;8124524;29;20251;-79
2022/04/28 03:24:40;;;;;;;6.00;5.17;;;;;;;9.96;52.62;98845.97;8124537;29;20245;-79
2022/04/28 03:28:43;;;;;;;5.80;5.20;;;;;;;9.88;52.91;98847.91;8124640;29;20240;-79
2022/04/28 03:32:48;;;;;;;6.10;5.50;;;;;;;9.88;53.05;98849.63;8124203;29;20237;-79
2022/04/28 03:36:54;;;;;;;6.53;5.93;;;;;;;9.78;53.09;98849.03;8123992;29;20241;-80
2022/04/28 03:40:56;;;;;;;6.43;5.73;;;;;;;9.60;53.44;98858.16;8124233;29;20229;-79
2022/04/28 03:44:59;;;;;;;7.90;5.93;;;;;;;9.73;53.35;98856.94;8123860;29;20237;-79
2022/04/28 03:49:04;;;;;;;7.93;6.93;;;;;;;9.69;53.12;98863.09;8123957;29;20252;-79
2022/04/28 03:53:07;;;;;;;6.80;6.13;;;;;;;9.71;53.27;98863.91;8124080;29;20248;-80
2022/04/28 03:57:10;;;;;;;6.90;6.03;;;;;;;9.70;53.36;98866.50;8123951;29;20308;-79
2022/04/28 04:01:14;;;;;;;6.53;5.47;;;;;;;9.76;52.95;98869.78;8123892;29;20245;-81
2022/04/28 04:05:18;;;;;;;5.33;4.77;;;;;;;9.67;53.05;98866.59;8125174;29;20526;-80
2022/04/28 04:09:22;;;;;;;6.63;5.90;;;;;;;9.72;53.24;98872.50;8129948;29;20260;-80
2022/04/28 04:13:24;;;;;;;6.20;5.00;;;;;;;9.71;53.33;98869.06;8160749;29;20432;-80
2022/04/28 04:17:27;;;;;;;5.97;5.30;;;;;;;9.76;53.45;98874.09;8160905;29;20244;-79
2022/04/28 04:21:39;;;;;;;6.23;5.63;;;;;;;9.68;53.45;98876.06;8160784;29;20519;-79
2022/04/28 04:25:42;;;;;;;5.60;5.10;;;;;;;9.63;53.25;98873.56;8160931;29;20569;-79
2022/04/28 04:29:45;;;;;;;5.70;5.20;;;;;;;9.64;53.08;98875.28;8160895;29;20248;-79
2022/04/28 04:33:48;;;;;;;6.67;5.33;;;;;;;9.66;53.02;98883.00;8160646;29;20233;-81
2022/04/28 04:37:52;;;;;;;6.17;5.30;;;;;;;9.74;53.06;98886.22;8160616;29;20287;-80
2022/04/28 04:41:55;;;;;;;5.73;5.23;;;;;;;9.66;53.22;98885.59;8160313;29;20236;-80
2022/04/28 04:45:59;;;;;;;6.93;6.00;;;;;;;9.69;52.99;98890.66;8160123;29;20564;-80
2022/04/28 04:50:02;;;;;;;5.80;5.17;;;;;;;9.70;53.29;98897.56;8159967;29;20252;-81
2022/04/28 04:54:06;;;;;;;5.07;4.67;;;;;;;9.79;53.40;98899.91;8159762;29;20236;-80
2022/04/28 04:58:12;;;;;;;5.33;4.83;;;;;;;9.84;53.35;98907.53;8159502;29;20240;-80
2022/04/28 05:02:14;;;;;;;6.97;5.57;;;;;;;9.94;53.38;98909.84;8159496;29;20251;-80
2022/04/28 05:06:22;;;;;;;6.00;5.50;;;;;;;10.03;53.17;98918.25;8159267;29;20248;-80
2022/04/28 05:10:32;;;;;;;6.37;5.63;;;;;;;10.00;53.36;98921.78;8158353;29;20247;-80
2022/04/28 05:14:35;;;;;;;5.97;5.37;;;;;;;10.08;54.02;98926.75;8158671;29;20606;-80
2022/04/28 05:18:39;;;;;;;8.47;5.43;;;;;;;10.22;53.26;98924.59;8158099;29;20252;-81
2022/04/28 05:22:44;;;;;;;6.00;5.50;;;;;;;10.33;53.71;98935.53;8158467;29;20271;-80
2022/04/28 05:26:48;;;;;;;6.67;5.90;;;;;;;10.45;53.19;98939.56;8158118;29;20240;-82
2022/04/28 05:30:51;;;;;;;6.47;5.80;;;;;;;10.46;53.44;98943.00;8158523;29;20240;-80
2022/04/28 05:34:56;;;;;;;6.60;6.00;;;;;;;10.66;53.55;98945.88;8158291;29;20236;-80
2022/04/28 05:39:00;;;;;;;6.37;5.53;;;;;;;10.82;53.42;98948.00;8158275;29;20576;-80
2022/04/28 05:47:25;;;;;;;8.63;5.70;;;;;;;11.14;53.80;98949.63;8157567;29;20431;-79
2022/04/28 05:51:28;;;;;;;6.13;5.53;;;;;;;11.35;52.58;98951.53;8157539;29;20244;-79
2022/04/28 05:55:33;;;;;;;5.97;5.33;;;;;;;11.53;53.16;98954.44;8157796;29;20427;-79
2022/04/28 05:59:37;;;;;;;6.10;5.50;;;;;;;11.82;51.89;98958.66;8157443;29;20254;-79
2022/04/28 06:03:41;;;;;;;7.53;6.00;;;;;;;12.09;52.16;98962.09;8157538;29;20436;-80
2022/04/28 06:07:44;;;;;;;7.90;6.17;;;;;;;12.47;52.45;98962.50;8157375;29;20252;-80
2022/04/28 06:11:47;;;;;;;8.80;6.87;;;;;;;12.81;51.73;98962.97;8157272;29;20267;-79
2022/04/28 06:15:52;;;;;;;10.50;6.60;;;;;;;13.12;51.11;98967.88;8157217;29;20243;-79
2022/04/28 06:19:55;;;;;;;8.77;6.40;;;;;;;13.00;51.00;98971.78;8156809;29;20251;-80
2022/04/28 06:24:18;;;;;;;7.73;6.80;;;;;;;13.48;50.12;98967.38;8156685;29;20240;-79
2022/04/28 06:28:21;;;;;;;7.53;6.30;;;;;;;13.62;50.01;98972.00;8155328;29;20244;-80
2022/04/28 06:32:25;;;;;;;8.67;6.03;;;;;;;13.99;49.40;98978.28;8155812;29;20239;-79
2022/04/28 06:36:28;;;;;;;11.97;6.70;;;;;;;14.18;49.24;98978.34;8155880;29;20244;-79
2022/04/28 06:40:31;;;;;;;9.00;6.23;;;;;;;14.25;48.35;98978.00;8155947;29;20244;-79
2022/04/28 06:44:36;;;;;;;10.03;6.00;;;;;;;14.65;47.49;98980.66;8155888;29;20235;-80
2022/04/28 06:48:43;;;;;;;8.30;6.50;;;;;;;13.92;48.33;98982.03;8155870;29;20316;-80
2022/04/28 06:52:49;;;;;;;8.53;6.47;;;;;;;14.80;47.95;98986.97;8155710;29;20535;-80
2022/04/28 06:56:52;;;;;;;8.43;6.47;;;;;;;15.08;46.90;98981.31;8155727;29;20429;-80
2022/04/28 07:00:54;;;;;;;11.23;6.30;;;;;;;15.19;47.38;98986.03;8155377;29;20236;-80
2022/04/28 07:04:59;;;;;;;8.00;6.40;;;;;;;15.29;45.41;98991.66;8155325;29;20236;-82
2022/04/28 07:09:02;;;;;;;8.70;6.00;;;;;;;15.79;44.95;98983.19;8155740;29;20243;-81
2022/04/28 07:13:05;;;;;;;10.73;6.30;;;;;;;15.71;43.27;98990.53;8155463;29;20243;-81
2022/04/28 07:17:08;;;;;;;10.77;5.83;;;;;;;16.13;42.70;98995.41;8155075;29;20248;-81
2022/04/28 07:21:12;;;;;;;7.97;6.40;;;;;;;16.29;43.06;98992.00;8155270;29;20259;-81
2022/04/28 07:25:15;;;;;;;7.37;5.90;;;;;;;16.86;42.53;99002.13;8155307;29;20240;-80
2022/04/28 07:29:18;;;;;;;8.80;6.20;;;;;;;17.06;40.84;99003.66;8155143;29;20243;-80
2022/04/28 07:33:21;;;;;;;10.07;6.40;;;;;;;17.05;41.17;99012.44;8154935;29;20243;-80
2022/04/28 07:37:26;;;;;;;10.57;6.03;;;;;;;17.46;41.50;99017.16;8154597;29;20258;-80
2022/04/28 07:41:29;;;;;;;7.40;6.47;;;;;;;17.56;39.85;99023.59;8154650;29;20565;-79
2022/04/28 07:45:32;;;;;;;9.40;5.90;;;;;;;17.42;39.80;99016.50;8154527;29;20267;-80
2022/04/28 07:49:36;;;;;;;10.80;8.17;;;;;;;18.16;40.60;99010.56;8154464;29;20244;-79
2022/04/28 07:53:45;;;;;;;24.17;19.07;;;;;;;18.48;46.02;99012.19;8156264;29;20642;-83
2022/04/28 07:57:47;;;;;;;15.43;10.93;;;;;;;18.94;42.79;99023.38;8155384;29;20557;-82
2022/04/28 08:01:50;;;;;;;15.23;8.63;;;;;;;19.47;39.21;99017.44;8155509;29;20236;-83
2022/04/28 08:05:54;;;;;;;11.90;7.10;;;;;;;19.48;38.73;99021.78;8155046;29;20395;-79
2022/04/28 08:09:59;;;;;;;11.93;6.67;;;;;;;19.38;38.22;99020.66;8154494;29;20247;-80
2022/04/28 08:14:01;;;;;;;16.47;6.30;;;;;;;20.00;38.32;99021.00;8155044;29;20243;-78
2022/04/28 08:18:05;;;;;;;8.07;6.40;;;;;;;20.09;37.24;99025.66;8154421;29;20241;-77
2022/04/28 08:22:08;;;;;;;10.67;7.30;;;;;;;20.02;34.48;99024.38;8154219;29;20277;-87
2022/04/28 08:26:12;;;;;;;7.53;5.90;;;;;;;20.43;36.87;99020.75;8154444;29;20439;-82
2022/04/28 08:30:15;;;;;;;9.83;7.30;;;;;;;20.15;35.38;99023.56;8154581;29;20442;-82
2022/04/28 08:34:19;;;;;;;8.33;7.10;;;;;;;20.00;33.69;99033.31;8155050;29;20237;-83
2022/04/28 08:38:22;;;;;;;8.40;6.80;;;;;;;19.98;34.88;99032.59;8154464;29;20238;-79
2022/04/28 08:42:27;;;;;;;14.00;7.23;;;;;;;19.97;34.31;99029.13;8153973;29;20241;-83
2022/04/28 08:50:51;;;;;;;9.93;7.83;;;;;;;20.36;32.54;99030.00;8155598;29;20265;-86
2022/04/28 08:54:55;;;;;;;9.03;7.80;;;;;;;20.21;30.45;99029.25;8160084;29;20239;-84
2022/04/28 08:58:59;;;;;;;9.30;6.87;;;;;;;20.57;30.96;99029.50;8160628;29;20394;-83
2022/04/28 09:03:03;;;;;;;7.53;5.93;;;;;;;21.07;31.04;99036.53;8160409;29;20240;-84
2022/04/28 09:07:08;;;;;;;8.97;5.50;;;;;;;21.18;28.62;99033.13;8160446;29;20238;-84
2022/04/28 09:11:17;;;;;;;11.83;5.30;;;;;;;21.58;31.26;99037.38;8160719;29;20252;-83
2022/04/28 09:15:23;;;;;;;14.03;5.30;;;;;;;21.98;31.20;99040.53;8159578;29;20245;-84
2022/04/28 09:19:28;;;;;;;11.53;5.67;;;;;;;21.87;32.80;99035.22;8158580;29;20239;-84
2022/04/28 09:23:31;;;;;;;12.47;5.50;;;;;;;22.01;29.79;99040.31;8158906;29;20244;-83
2022/04/28 09:27:34;;;;;;;14.83;4.90;;;;;;;21.60;30.79;99035.47;8158952;29;20250;-82
2022/04/28 09:31:39;;;;;;;9.53;4.50;;;;;;;21.65;30.36;99030.69;8159029;29;20251;-85
2022/04/28 09:36:01;;;;;;;8.17;4.30;;;;;;;22.43;29.82;99029.31;8159219;29;20521;-84
2022/04/28 09:44:27;;;;;;;8.73;4.00;;;;;;;22.38;28.77;99026.19;8127137;29;20240;-83
2022/04/28 09:48:33;;;;;;;5.53;3.60;;;;;;;23.05;27.06;99016.63;8128098;29;20555;-84
2022/04/28 09:52:36;;;;;;;5.43;3.87;;;;;;;23.29;28.20;99021.78;8127519;29;20247;-86
2022/04/28 09:56:40;;;;;;;8.13;4.00;;;;;;;23.64;28.05;99018.91;8127272;29;20251;-88
2022/04/28 10:00:43;;;;;;;10.03;4.10;;;;;;;23.52;25.26;99017.28;8127119;29;20241;-87
2022/04/28 10:04:48;;;;;;;9.87;4.17;;;;;;;23.64;25.67;99013.63;8127010;29;20416;-89
2022/04/28 10:08:52;;;;;;;5.80;3.50;;;;;;;24.12;26.34;99012.34;8126726;29;20263;-89
2022/04/28 10:12:56;;;;;;;4.70;3.70;;;;;;;24.62;25.45;99012.56;8126361;29;20241;-87
2022/04/28 10:17:00;;;;;;;4.63;2.80;;;;;;;24.06;21.64;99016.34;8126438;29;20242;-89
2022/04/28 10:21:06;;;;;;;6.27;3.13;;;;;;;23.70;22.81;99014.91;8127114;29;20427;-89
2022/04/28 10:34:10;;;;;;;5.23;2.70;;;;;;;24.85;23.49;99007.91;8157776;29;20236;-86
2022/04/28 10:38:20;;;;;;;5.77;2.80;;;;;;;24.58;22.74;99004.03;8156961;29;20246;-88
2022/04/28 10:42:57;;;;;;;4.57;2.73;;;;;;;24.63;22.47;98994.84;8141579;29;20242;-84
2022/04/28 10:47:02;;;;;;;5.30;2.80;;;;;;;24.94;22.17;99011.56;8157306;29;20242;-86
2022/04/28 10:51:13;;;;;;;6.67;2.67;;;;;;;24.25;26.80;99006.88;8161232;29;20235;-94
2022/04/28 10:55:18;;;;;;;4.83;2.40;;;;;;;24.41;23.13;99007.25;8157290;29;20555;-93
2022/04/28 10:59:34;;;;;;;8.47;3.13;;;;;;;25.05;24.13;99013.28;8156332;29;20551;-82
2022/04/28 11:03:48;;;;;;;3.97;3.00;;;;;;;25.07;24.25;99012.16;8155609;29;20251;-93
2022/04/28 11:07:54;;;;;;;9.53;3.03;;;;;;;25.14;25.48;99013.28;8156027;29;20237;-90
2022/04/28 11:12:17;;;;;;;4.87;2.90;;;;;;;25.40;21.89;99017.28;8156879;29;20562;-89
2022/04/28 11:16:22;;;;;;;5.67;2.93;;;;;;;25.58;22.68;99012.16;8156249;29;20528;-88
2022/04/28 11:20:25;;;;;;;5.60;2.90;;;;;;;24.28;28.78;99011.91;8124893;29;20530;-93
2022/04/28 11:24:28;;;;;;;5.50;3.40;;;;;;;24.34;27.43;99006.09;8125119;29;20248;-87
2022/04/28 11:28:34;;;;;;;4.50;2.90;;;;;;;23.53;28.43;99003.06;8125235;29;20567;-91
2022/04/28 11:32:46;;;;;;;7.20;3.37;;;;;;;23.53;27.06;99000.44;8125354;29;20247;-90
2022/04/28 11:36:49;;;;;;;5.20;2.87;;;;;;;24.30;26.90;98997.56;8124984;29;20560;-87
2022/04/28 11:41:00;;;;;;;3.77;2.80;;;;;;;23.79;30.20;99000.97;8125134;29;20249;-92
2022/04/28 11:45:05;;;;;;;6.50;3.23;;;;;;;24.10;25.46;98983.38;8125259;29;20246;-94
2022/04/28 11:49:07;;;;;;;3.87;2.73;;;;;;;23.71;25.38;98990.16;8125329;29;20241;-84
2022/04/28 11:53:12;;;;;;;9.33;3.13;;;;;;;23.05;29.44;98996.34;8125060;29;20572;-94
2022/04/28 11:57:16;;;;;;;5.40;2.90;;;;;;;22.60;29.87;98991.06;8125176;29;20307;-96
2022/04/28 12:01:21;;;;;;;6.20;2.80;;;;;;;22.33;28.53;98984.31;8124883;29;20244;-94
2022/04/28 12:05:27;;;;;;;4.40;3.00;;;;;;;22.01;26.05;98986.75;8156249;29;20539;-88
2022/04/28 12:22:44;;;;;;;9.10;2.77;;;;;;;23.03;26.37;98992.97;8154868;29;20588;-92
2022/04/28 12:26:49;;;;;;;6.77;3.10;;;;;;;23.31;23.66;98988.13;8158638;29;20403;-94
2022/04/28 12:30:54;;;;;;;4.83;2.80;;;;;;;23.89;24.01;98988.66;8161840;29;20427;-96
2022/04/28 12:35:05;;;;;;;3.30;3.00;;;;;;;24.13;22.76;98984.94;8161301;29;20257;-95
2022/04/28 12:39:08;;;;;;;4.20;2.80;;;;;;;24.40;23.78;98977.28;8161267;29;20252;-93
2022/04/28 12:43:11;;;;;;;3.60;2.80;;;;;;;24.06;23.77;98984.59;8160687;29;20250;-93
2022/04/28 12:47:14;;;;;;;4.40;2.70;;;;;;;24.74;23.39;98974.41;8161307;29;20270;-92
2022/04/28 12:51:20;;;;;;;4.13;2.70;;;;;;;24.85;22.37;98975.28;8161314;29;20441;-93
2022/04/28 12:55:23;;;;;;;3.83;2.47;;;;;;;24.90;21.39;98971.28;8159854;29;20241;-90
2022/04/28 12:59:28;;;;;;;4.03;2.70;;;;;;;23.78;21.20;98962.25;8160535;29;20245;-92
2022/04/28 13:03:31;;;;;;;4.20;2.50;;;;;;;23.76;20.86;98962.38;8161834;29;20299;-92
2022/04/28 13:07:36;;;;;;;6.87;2.20;;;;;;;24.27;22.20;98952.00;8160445;29;20243;-95
2022/04/28 13:11:40;;;;;;;3.93;2.40;;;;;;;23.21;23.67;98954.53;8160802;29;20430;-92
2022/04/28 13:15:43;;;;;;;3.37;2.03;;;;;;;23.25;21.65;98943.69;8160567;29;20238;-94
2022/04/28 13:19:46;;;;;;;2.30;2.10;;;;;;;22.98;21.63;98937.88;8160118;29;20248;-90
2022/04/28 13:23:50;;;;;;;3.60;1.97;;;;;;;23.73;22.55;98938.81;8159732;29;20240;-90
2022/04/28 13:27:53;;;;;;;4.53;2.30;;;;;;;22.89;23.46;98935.13;8160250;29;20243;-94
2022/04/28 13:31:57;;;;;;;2.80;2.23;;;;;;;22.10;23.58;98933.25;8159468;29;20259;-92
2022/04/28 13:36:01;;;;;;;3.90;2.27;;;;;;;22.00;24.17;98932.31;8159267;29;20240;-89
2022/04/28 13:40:07;;;;;;;3.57;2.00;;;;;;;22.10;25.06;98928.00;8159712;29;20243;-91
2022/04/28 13:44:11;;;;;;;3.33;2.23;;;;;;;22.30;25.49;98920.41;8159332;29;20531;-91
2022/04/28 13:48:16;;;;;;;4.80;2.20;;;;;;;23.15;25.01;98930.38;8162326;29;20367;-91
2022/04/28 13:52:19;;;;;;;3.53;2.50;;;;;;;23.39;24.29;98917.81;8158982;29;20245;-91
2022/04/28 13:56:24;;;;;;;7.00;2.40;;;;;;;23.73;24.45;98914.19;8158314;29;20244;-85
2022/04/28 14:00:27;;;;;;;3.20;2.70;;;;;;;23.67;24.52;98914.72;8158570;29;20347;-89
2022/04/28 14:04:33;;;;;;;3.07;2.07;;;;;;;24.03;24.02;98907.28;8158653;29;20249;-91
2022/04/28 14:08:37;;;;;;;3.87;2.70;;;;;;;24.13;23.20;98910.84;8158295;29;20260;-89
2022/04/28 14:12:42;;;;;;;3.47;2.20;;;;;;;24.19;21.97;98903.22;8158586;29;20436;-90
2022/04/28 14:16:45;;;;;;;5.67;2.57;;;;;;;24.27;23.12;98907.00;8158497;29;20239;-91
2022/04/28 14:20:51;;;;;;;3.07;2.00;;;;;;;24.44;21.98;98894.97;8158260;29;20246;-88
2022/04/28 14:24:58;;;;;;;4.60;2.60;;;;;;;24.20;22.40;98901.41;8158089;29;20444;-91
2022/04/28 14:29:03;;;;;;;3.40;2.10;;;;;;;24.53;23.31;98897.69;8157667;29;20240;-91
2022/04/28 14:33:06;;;;;;;3.83;2.47;;;;;;;24.22;21.00;98893.31;8157467;29;20292;-91
2022/04/28 14:37:10;;;;;;;2.43;2.20;;;;;;;23.70;21.07;98891.47;8157733;29;20350;-85
2022/04/28 14:41:13;;;;;;;3.03;2.40;;;;;;;24.14;23.48;98891.34;8157577;29;20315;-89
2022/04/28 14:45:18;;;;;;;4.00;2.40;;;;;;;23.69;22.67;98897.75;8158345;29;20335;-90
2022/04/28 14:53:41;;;;;;;3.57;2.00;;;;;;;24.14;23.85;98891.34;8126597;29;20306;-90
2022/04/28 14:57:45;;;;;;;4.30;2.40;;;;;;;23.78;22.28;98893.50;8126935;29;20245;-92
2022/04/28 15:01:50;;;;;;;5.03;3.07;;;;;;;22.42;23.35;98895.66;8127462;29;20442;-89
2022/04/28 15:05:53;;;;;;;5.37;3.00;;;;;;;22.20;25.13;98899.97;8126813;29;20300;-93
2022/04/28 15:09:58;;;;;;;5.30;2.70;;;;;;;22.02;23.86;98896.94;8127168;29;20248;-89
2022/04/28 15:14:01;;;;;;;3.63;2.33;;;;;;;21.61;23.75;98895.66;8129852;29;20244;-88
2022/04/28 15:18:06;;;;;;;4.13;1.93;;;;;;;21.85;26.11;98900.03;8133583;29;20348;-87
2022/04/28 15:22:09;;;;;;;3.37;2.17;;;;;;;21.50;25.69;98895.63;8128828;29;20252;-88
2022/04/28 15:26:13;;;;;;;3.37;2.20;;;;;;;21.20;26.19;98891.63;8130335;29;20251;-92
2022/04/28 15:30:16;;;;;;;9.40;3.83;;;;;;;21.77;36.48;98892.69;8127786;29;20324;-85
2022/04/28 15:34:24;;;;;;;7.10;3.60;;;;;;;22.20;36.09;98888.56;8156751;29;20350;-83
2022/04/28 15:38:27;;;;;;;6.77;3.13;;;;;;;22.25;32.94;98892.53;8155866;29;20569;-84
2022/04/28 15:42:30;;;;;;;4.97;2.70;;;;;;;22.31;28.77;98887.75;8157626;29;20244;-84
2022/04/28 15:46:33;;;;;;;5.60;2.63;;;;;;;22.44;30.42;98886.66;8158178;29;20248;-85
2022/04/28 15:50:38;;;;;;;3.57;2.30;;;;;;;22.38;28.06;98883.69;8157540;29;20251;-85
2022/04/28 15:54:41;;;;;;;5.30;3.50;;;;;;;22.14;29.65;98886.41;8156197;29;20263;-84
2022/04/28 15:58:44;;;;;;;6.43;2.97;;;;;;;22.17;25.21;98884.38;8155194;29;20239;-83
2022/04/28 16:02:48;;;;;;;4.53;3.13;;;;;;;22.26;29.20;98882.84;8178565;29;20251;-87
2022/04/28 16:06:53;;;;;;;5.50;2.67;;;;;;;22.23;29.25;98873.31;8171788;29;20242;-86
2022/04/28 16:10:56;;;;;;;4.33;2.70;;;;;;;22.25;29.09;98876.72;8176726;29;20255;-92
2022/04/28 16:15:00;;;;;;;3.03;2.40;;;;;;;21.99;30.23;98877.88;8172100;29;20228;-88
2022/04/28 16:19:04;;;;;;;4.87;3.53;;;;;;;21.98;28.89;98882.31;8174345;29;20244;-86
2022/04/28 16:23:08;;;;;;;5.43;2.77;;;;;;;22.01;30.47;98886.53;8166061;29;20254;-86
2022/04/28 16:27:11;;;;;;;5.90;3.20;;;;;;;21.86;31.88;98878.81;8162246;29;20570;-92
2022/04/28 16:31:14;;;;;;;6.53;2.80;;;;;;;21.83;31.49;98883.47;8167047;29;20254;-88
2022/04/28 16:35:17;;;;;;;5.23;2.93;;;;;;;21.74;31.82;98881.53;8191953;29;20298;-87
2022/04/28 16:39:21;;;;;;;6.00;2.70;;;;;;;21.67;30.37;98876.75;8191754;29;20243;-88
2022/04/28 16:43:24;;;;;;;4.37;2.40;;;;;;;21.59;30.40;98873.00;8190977;29;20239;-88
2022/04/28 16:47:27;;;;;;;4.17;2.60;;;;;;;21.48;29.26;98876.47;8136861;29;20245;-87
2022/04/28 16:51:30;;;;;;;6.37;2.30;;;;;;;21.26;29.66;98880.63;8128520;29;20255;-87
2022/04/28 16:55:36;;;;;;;5.00;2.67;;;;;;;21.06;33.39;98890.00;8128064;29;20444;-87
2022/04/28 16:59:40;;;;;;;6.43;2.63;;;;;;;21.15;33.08;98899.06;8127772;29;20237;-80
2022/04/28 17:08:04;;;;;;;6.77;2.50;;;;;;;21.06;34.04;98904.97;8127593;29;20313;-83
2022/04/28 17:12:10;;;;;;;7.43;2.43;;;;;;;20.98;33.26;98905.53;8127052;29;20547;-83
2022/04/28 17:16:13;;;;;;;7.27;2.80;;;;;;;20.93;33.02;98910.28;8127585;29;20248;-84
2022/04/28 17:20:16;;;;;;;6.30;2.80;;;;;;;20.81;33.57;98906.75;8127443;29;20250;-84
2022/04/28 17:24:21;;;;;;;5.70;2.70;;;;;;;20.79;35.66;98913.06;8127600;29;20242;-83
2022/04/28 17:28:29;;;;;;;3.53;2.40;;;;;;;20.78;35.46;98908.75;8158039;29;20236;-83
2022/04/28 17:32:32;;;;;;;4.50;2.63;;;;;;;20.73;33.52;98909.06;8158371;29;20440;-81
2022/04/28 17:36:36;;;;;;;3.87;2.00;;;;;;;20.48;28.34;98910.78;8158429;29;20444;-81
2022/04/28 17:40:39;;;;;;;3.00;2.50;;;;;;;20.37;29.55;98920.38;8157969;29;20258;-81
2022/04/28 17:44:43;;;;;;;4.47;3.33;;;;;;;20.20;29.34;98919.75;8163074;29;20246;-81
2022/04/28 17:48:51;;;;;;;7.83;5.73;;;;;;;20.15;28.99;98918.41;8157994;29;20301;-80
2022/04/28 17:53:13;;;;;;;9.60;8.60;;;;;;;20.05;29.56;98919.03;8157773;29;20252;-81
2022/04/28 18:01:39;;;;;;;5.93;4.63;;;;;;;19.81;30.60;98926.75;8157254;29;20248;-81
2022/04/28 18:05:45;;;;;;;3.73;2.67;;;;;;;19.68;30.72;98924.06;8157296;29;20253;-80
2022/04/28 18:09:48;;;;;;;3.17;2.30;;;;;;;19.58;32.33;98927.44;8156911;29;20279;-80
2022/04/28 18:13:52;;;;;;;5.00;2.33;;;;;;;19.71;32.40;98923.06;8153824;29;20484;-76
2022/04/28 18:17:58;;;;;;;5.60;1.90;;;;;;;19.36;33.43;98928.00;8156830;29;20238;-77
2022/04/28 18:22:02;;;;;;;5.67;2.20;;;;;;;19.20;33.60;98933.41;8156631;29;20250;-75
2022/04/28 18:26:06;;;;;;;3.13;1.80;;;;;;;19.18;33.67;98938.75;8155405;29;20244;-76
2022/04/28 18:30:10;;;;;;;4.80;2.00;;;;;;;19.10;34.90;98944.50;8156231;29;20240;-76
2022/04/28 18:34:15;;;;;;;12.87;10.70;;;;;;;18.94;36.84;98939.38;8138543;29;20242;-76
2022/04/28 18:47:10;;;;;;;8.77;4.60;;;;;;;18.63;38.81;98950.06;8153168;29;20243;-76
2022/04/28 18:51:16;;;;;;;6.13;3.03;;;;;;;18.52;37.22;98953.34;8155449;29;20245;-76
2022/04/28 18:55:19;;;;;;;3.83;2.90;;;;;;;18.40;36.73;98954.94;8155270;29;20240;-76
2022/04/28 18:59:22;;;;;;;6.27;3.17;;;;;;;18.30;37.11;98954.66;8154557;29;20230;-76
2022/04/28 19:03:25;;;;;;;5.67;3.03;;;;;;;18.25;37.28;98963.75;8154945;29;20466;-77
2022/04/28 19:07:32;;;;;;;5.63;3.70;;;;;;;18.10;38.14;98970.72;8152123;29;20330;-77
2022/04/28 19:11:35;;;;;;;6.20;3.60;;;;;;;17.97;38.26;98973.22;8154570;29;20240;-78
2022/04/28 19:15:41;;;;;;;7.20;3.10;;;;;;;17.90;37.93;98969.31;8152486;29;20237;-78
2022/04/28 19:19:44;;;;;;;5.97;2.97;;;;;;;17.76;39.54;98972.66;8154448;29;20432;-78
2022/04/28 19:23:51;;;;;;;4.00;2.53;;;;;;;17.69;37.70;98980.06;8154421;29;20246;-80
2022/04/28 19:28:03;;;;;;;4.07;2.77;;;;;;;17.60;37.94;98977.97;8154674;29;20236;-80
2022/04/28 19:32:07;;;;;;;5.60;2.90;;;;;;;17.50;39.72;98988.13;8153022;29;20237;-78
2022/04/28 19:36:13;;;;;;;5.23;3.10;;;;;;;17.45;39.63;98984.06;8154063;29;20554;-79
2022/04/28 19:40:18;;;;;;;5.97;3.60;;;;;;;17.33;40.23;98986.44;8154632;29;20242;-78
2022/04/28 19:44:22;;;;;;;6.33;4.20;;;;;;;17.20;40.99;98991.50;8151643;29;20243;-79
2022/04/28 19:48:24;;;;;;;5.93;4.60;;;;;;;17.09;41.03;98987.78;8148383;29;20235;-77
2022/04/28 19:52:27;;;;;;;6.70;4.00;;;;;;;17.01;41.52;98988.22;8148766;29;20246;-76
2022/04/28 19:56:32;;;;;;;7.33;3.73;;;;;;;16.93;41.52;98985.19;8151280;29;20254;-76
2022/04/28 20:00:35;;;;;;;4.60;3.57;;;;;;;16.74;42.39;98998.38;8153906;29;20232;-78
2022/04/28 20:04:40;;;;;;;5.97;4.30;;;;;;;16.75;42.31;99002.66;8153705;29;20262;-77
2022/04/28 20:08:43;;;;;;;6.77;4.17;;;;;;;16.67;42.41;99005.69;8153635;29;20551;-78
2022/04/28 20:12:48;;;;;;;6.82;4.57;;;;;;;16.99;41.67;99005.78;8152555;29;20529;-77
2022/04/28 20:16:52;;;;;;;5.53;3.60;;;;;;;16.47;42.44;99011.97;8153396;29;20232;-77
2022/04/28 20:20:55;;;;;;;7.57;3.50;;;;;;;16.49;42.54;99011.91;8153455;29;20250;-77